createdAt,value
2023-05-25T00:01:26.325Z,21.01
2023-05-25T00:03:53.550Z,20.98
2023-05-25T00:06:26.214Z,21.01
2023-05-25T00:08:52.493Z,20.96
2023-05-25T00:11:20.487Z,21.01
2023-05-25T00:13:46.770Z,20.98
2023-05-25T00:16:13.222Z,20.98
2023-05-25T00:18:41.846Z,20.99
2023-05-25T00:21:17.597Z,20.97
2023-05-25T00:23:53.832Z,20.98
2023-05-25T00:26:30.056Z,20.94
2023-05-25T00:28:56.792Z,20.96
2023-05-25T00:31:24.863Z,20.89
2023-05-25T00:33:51.187Z,20.92
2023-05-25T00:36:18.274Z,20.95
2023-05-25T00:38:44.617Z,20.93
2023-05-25T00:41:14.704Z,20.88
2023-05-25T00:43:43.494Z,20.90
2023-05-25T00:46:09.865Z,20.89
2023-05-25T00:48:40.216Z,20.87
2023-05-25T00:51:06.546Z,20.89
2023-05-25T00:53:35.456Z,20.89
2023-05-25T00:56:01.700Z,20.86
2023-05-25T00:58:28.011Z,20.86
2023-05-25T01:00:54.298Z,20.87
2023-05-25T01:03:22.257Z,20.84
2023-05-25T01:05:48.636Z,20.85
2023-05-25T01:08:14.872Z,20.86
2023-05-25T01:10:45.607Z,20.83
2023-05-25T01:13:14.816Z,20.83
2023-05-25T01:15:46.331Z,20.83
2023-05-25T01:18:13.875Z,20.82
2023-05-25T01:20:42.171Z,20.80
2023-05-25T01:23:08.504Z,20.80
2023-05-25T01:25:34.763Z,20.80
2023-05-25T01:28:06.540Z,20.79
2023-05-25T01:30:32.868Z,20.79
2023-05-25T01:33:02.221Z,20.76
2023-05-25T01:35:35.392Z,20.79
2023-05-25T01:38:01.712Z,20.78
2023-05-25T01:40:27.945Z,20.76
2023-05-25T01:42:57.703Z,20.75
2023-05-25T01:45:30.356Z,20.75
2023-05-25T01:48:01.363Z,20.74
2023-05-25T01:50:27.727Z,20.75
2023-05-25T01:52:59.130Z,20.70
2023-05-25T01:55:26.495Z,20.72
2023-05-25T01:57:56.174Z,20.72
2023-05-25T02:00:22.440Z,20.71
2023-05-25T02:02:48.791Z,20.69
2023-05-25T02:05:15.513Z,20.70
2023-05-25T02:07:41.805Z,20.71
2023-05-25T02:10:10.067Z,20.71
2023-05-25T02:12:36.406Z,20.67
2023-05-25T02:15:03.644Z,20.69
2023-05-25T02:17:30.936Z,20.70
2023-05-25T02:19:57.280Z,20.70
2023-05-25T02:22:23.569Z,20.66
2023-05-25T02:24:49.873Z,20.67
2023-05-25T02:27:16.155Z,20.66
2023-05-25T02:29:42.478Z,20.67
2023-05-25T02:32:09.051Z,20.67
2023-05-25T02:34:35.310Z,20.65
2023-05-25T02:37:05.580Z,20.66
2023-05-25T02:39:31.844Z,20.64
2023-05-25T02:42:01.688Z,20.65
2023-05-25T02:44:28.026Z,20.65
2023-05-25T02:46:56.497Z,20.63
2023-05-25T02:49:22.936Z,20.62
2023-05-25T02:51:50.788Z,20.63
2023-05-25T02:54:21.438Z,20.61
2023-05-25T02:56:50.883Z,20.60
2023-05-25T02:59:17.147Z,20.61
2023-05-25T03:01:43.393Z,20.62
2023-05-25T03:04:09.759Z,20.61
2023-05-25T03:06:37.509Z,20.58
2023-05-25T03:09:03.781Z,20.59
2023-05-25T03:11:34.587Z,20.57
2023-05-25T03:14:03.645Z,20.56
2023-05-25T03:16:29.979Z,20.56
2023-05-25T03:18:56.241Z,20.56
2023-05-25T03:21:24.112Z,20.58
2023-05-25T03:23:50.463Z,20.57
2023-05-25T03:26:16.790Z,20.55
2023-05-25T03:28:46.895Z,20.56
2023-05-25T03:31:15.379Z,20.56
2023-05-25T03:33:41.631Z,20.55
2023-05-25T03:36:07.917Z,20.56
2023-05-25T03:38:34.139Z,20.55
2023-05-25T03:41:00.398Z,20.55
2023-05-25T03:43:29.942Z,20.55
2023-05-25T03:45:59.237Z,20.56
2023-05-25T03:48:32.907Z,20.55
2023-05-25T03:50:59.207Z,20.54
2023-05-25T03:53:29.851Z,20.56
2023-05-25T03:55:56.122Z,20.52
2023-05-25T03:58:23.099Z,20.52
2023-05-25T04:00:49.355Z,20.50
2023-05-25T04:03:15.762Z,20.52
2023-05-25T04:05:42.312Z,20.50
2023-05-25T04:08:08.659Z,20.46
2023-05-25T04:10:34.991Z,20.46
2023-05-25T04:13:09.054Z,20.47
2023-05-25T04:15:35.284Z,20.46
2023-05-25T04:18:02.980Z,20.48
2023-05-25T04:20:34.456Z,20.48
2023-05-25T04:23:06.337Z,20.47
2023-05-25T04:25:32.705Z,20.45
2023-05-25T04:28:02.372Z,20.47
2023-05-25T04:30:31.163Z,20.46
2023-05-25T04:32:57.422Z,20.41
2023-05-25T04:35:23.774Z,20.46
2023-05-25T04:37:53.643Z,20.42
2023-05-25T04:40:20.222Z,20.45
2023-05-25T04:42:46.501Z,20.43
2023-05-25T04:45:12.735Z,20.44
2023-05-25T04:47:45.939Z,20.46
2023-05-25T04:50:12.744Z,20.41
2023-05-25T04:52:39.006Z,20.43
2023-05-25T04:55:08.034Z,20.43
2023-05-25T04:57:37.657Z,20.41
2023-05-25T05:00:05.615Z,20.39
2023-05-25T05:02:35.624Z,20.40
2023-05-25T05:05:02.813Z,20.40
2023-05-25T05:07:29.056Z,20.41
2023-05-25T05:09:57.791Z,20.44
2023-05-25T05:12:24.091Z,20.47
2023-05-25T05:14:50.336Z,20.39
2023-05-25T05:17:16.644Z,20.41
2023-05-25T05:19:43.188Z,20.38
2023-05-25T05:22:11.979Z,20.38
2023-05-25T05:24:43.876Z,20.41
2023-05-25T05:27:16.507Z,20.38
2023-05-25T05:29:42.889Z,20.40
2023-05-25T05:32:09.155Z,20.39
2023-05-25T05:34:35.405Z,20.37
2023-05-25T05:37:01.701Z,20.42
2023-05-25T05:39:28.133Z,20.41
2023-05-25T05:41:58.135Z,20.36
2023-05-25T05:44:29.240Z,20.39
2023-05-25T05:46:55.916Z,20.42
2023-05-25T05:49:26.497Z,20.38
2023-05-25T05:51:52.754Z,20.40
2023-05-25T05:54:18.992Z,20.31
2023-05-25T05:56:45.226Z,20.36
2023-05-25T05:59:17.475Z,20.40
2023-05-25T06:01:43.917Z,20.39
2023-05-25T06:04:15.008Z,20.40
2023-05-25T06:06:41.478Z,20.39
2023-05-25T06:09:08.057Z,20.41
2023-05-25T06:11:34.380Z,20.41
2023-05-25T06:14:00.650Z,20.40
2023-05-25T06:16:27.002Z,20.42
2023-05-25T06:18:53.364Z,20.45
2023-05-25T06:21:19.599Z,20.47
2023-05-25T06:23:49.893Z,20.44
2023-05-25T06:26:16.239Z,20.46
2023-05-25T06:28:42.541Z,20.44
2023-05-25T06:31:08.799Z,20.46
2023-05-25T06:33:35.062Z,20.44
2023-05-25T06:36:01.381Z,20.44
2023-05-25T06:38:27.636Z,20.43
2023-05-25T06:40:57.051Z,20.47
2023-05-25T06:43:23.858Z,20.42
2023-05-25T06:45:53.239Z,20.47
2023-05-25T06:48:21.293Z,20.47
2023-05-25T06:50:47.618Z,20.45
2023-05-25T06:53:16.692Z,20.46
2023-05-25T06:55:46.346Z,20.43
2023-05-25T06:58:12.772Z,20.44
2023-05-25T07:00:39.134Z,20.47
2023-05-25T07:03:15.367Z,20.43
2023-05-25T07:05:41.784Z,20.50
2023-05-25T07:08:10.499Z,20.46
2023-05-25T07:10:38.901Z,20.45
2023-05-25T07:13:05.159Z,20.44
2023-05-25T07:15:31.461Z,20.45
2023-05-25T07:18:03.858Z,20.45
2023-05-25T07:20:30.180Z,20.46
2023-05-25T07:22:56.830Z,20.45
2023-05-25T07:25:23.168Z,20.41
2023-05-25T07:27:54.972Z,20.46
2023-05-25T07:30:22.440Z,20.42
2023-05-25T07:32:48.726Z,20.46
2023-05-25T07:35:15.070Z,20.41
2023-05-25T07:37:46.410Z,20.42
2023-05-25T07:40:13.012Z,20.40
2023-05-25T07:42:39.973Z,20.46
2023-05-25T07:45:06.335Z,20.39
2023-05-25T07:47:32.950Z,20.40
2023-05-25T07:49:59.781Z,20.40
2023-05-25T07:52:27.620Z,20.41
2023-05-25T07:54:55.349Z,20.41
2023-05-25T07:57:21.702Z,20.40
2023-05-25T07:59:48.250Z,20.42
2023-05-25T08:02:16.946Z,20.42
2023-05-25T08:04:43.408Z,20.40
2023-05-25T08:07:09.721Z,20.42
2023-05-25T08:09:43.017Z,20.41
2023-05-25T08:12:30.534Z,20.39
2023-05-25T08:14:55.563Z,20.45
2023-05-25T08:17:21.868Z,20.44
2023-05-25T08:19:48.138Z,20.43
2023-05-25T08:22:20.063Z,20.43
2023-05-25T08:24:46.466Z,20.44
2023-05-25T08:27:13.270Z,20.46
2023-05-25T08:29:46.397Z,20.45
2023-05-25T08:32:15.918Z,20.43
2023-05-25T08:34:42.169Z,20.45
2023-05-25T08:37:08.829Z,20.44
2023-05-25T08:39:36.840Z,20.45
2023-05-25T08:42:03.409Z,20.43
2023-05-25T08:44:29.636Z,20.48
2023-05-25T08:46:55.873Z,20.42
2023-05-25T08:49:22.240Z,20.43
2023-05-25T08:51:49.378Z,20.40
2023-05-25T08:54:15.652Z,20.42
2023-05-25T08:56:41.994Z,20.42
2023-05-25T08:59:08.263Z,20.43
2023-05-25T09:01:37.936Z,20.41
2023-05-25T09:04:05.132Z,20.43
2023-05-25T09:06:34.716Z,20.47
2023-05-25T09:09:04.308Z,20.53
2023-05-25T09:11:39.338Z,20.51
2023-05-25T09:14:07.037Z,20.50
2023-05-25T09:16:36.247Z,20.48
2023-05-25T09:19:07.380Z,20.47
2023-05-25T09:21:36.323Z,20.43
2023-05-25T09:24:02.582Z,20.40
2023-05-25T09:26:32.743Z,20.41
2023-05-25T09:28:59.030Z,20.44
2023-05-25T09:31:25.368Z,20.42
2023-05-25T09:33:51.818Z,20.43
2023-05-25T09:36:19.188Z,20.41
2023-05-25T09:38:45.812Z,20.44
2023-05-25T09:41:14.257Z,20.43
2023-05-25T09:43:51.652Z,20.43
2023-05-25T09:46:28.770Z,20.38
2023-05-25T09:48:59.529Z,20.40
2023-05-25T09:51:28.918Z,20.41
2023-05-25T09:54:00.966Z,20.42
2023-05-25T09:56:33.607Z,20.44
2023-05-25T09:59:02.596Z,20.44
2023-05-25T10:01:28.975Z,20.42
2023-05-25T10:04:04.288Z,20.42
2023-05-25T10:06:35.388Z,20.47
2023-05-25T10:09:01.641Z,20.47
2023-05-25T10:11:29.938Z,20.50
2023-05-25T10:13:56.269Z,20.51
2023-05-25T10:16:22.581Z,20.52
2023-05-25T10:18:52.928Z,20.52
2023-05-25T10:21:19.256Z,20.52
2023-05-25T10:23:47.732Z,20.54
2023-05-25T10:26:14.039Z,20.53
2023-05-25T10:28:48.657Z,20.53
2023-05-25T10:31:21.561Z,20.54
2023-05-25T10:33:52.055Z,20.56
2023-05-25T10:36:19.607Z,20.55
2023-05-25T10:38:48.906Z,20.54
2023-05-25T10:41:16.560Z,20.52
2023-05-25T10:43:48.926Z,20.51
2023-05-25T10:46:16.472Z,20.49
2023-05-25T10:48:47.398Z,20.50
2023-05-25T10:51:13.691Z,20.50
2023-05-25T10:53:41.729Z,20.50
2023-05-25T10:56:09.734Z,20.51
2023-05-25T10:58:36.260Z,20.51
2023-05-25T11:01:02.712Z,20.51
2023-05-25T11:03:31.374Z,20.52
2023-05-25T11:06:04.801Z,20.56
2023-05-25T11:08:31.181Z,20.54
2023-05-25T11:10:57.610Z,20.55
2023-05-25T11:13:25.932Z,20.55
2023-05-25T11:15:52.233Z,20.55
2023-05-25T11:18:18.515Z,20.55
2023-05-25T11:20:47.901Z,20.54
2023-05-25T11:23:14.525Z,20.53
2023-05-25T11:25:40.834Z,20.52
2023-05-25T11:28:10.047Z,20.52
2023-05-25T11:30:38.785Z,20.52
2023-05-25T11:33:11.371Z,20.54
2023-05-25T11:35:45.065Z,20.57
2023-05-25T11:38:16.304Z,20.55
2023-05-25T11:40:45.360Z,20.61
2023-05-25T11:43:14.561Z,20.59
2023-05-25T11:45:40.855Z,20.62
2023-05-25T11:48:08.469Z,20.66
2023-05-25T11:50:39.969Z,20.67
2023-05-25T11:53:06.621Z,20.68
2023-05-25T11:55:32.906Z,20.70
2023-05-25T11:57:59.137Z,20.69
2023-05-25T12:00:25.688Z,20.68
2023-05-25T12:02:51.981Z,20.68
2023-05-25T12:05:19.914Z,20.72
2023-05-25T12:07:46.676Z,20.74
2023-05-25T12:10:13.039Z,20.73
2023-05-25T12:12:44.603Z,20.75
2023-05-25T12:15:10.900Z,20.75
2023-05-25T12:17:37.230Z,20.75
2023-05-25T12:20:06.463Z,20.73
2023-05-25T12:22:38.454Z,20.76
2023-05-25T12:25:04.749Z,20.76
2023-05-25T12:27:31.048Z,20.74
2023-05-25T12:30:00.749Z,20.73
2023-05-25T12:32:27.043Z,20.73
2023-05-25T12:34:53.318Z,20.71
2023-05-25T12:37:20.154Z,20.70
2023-05-25T12:39:48.347Z,20.70
2023-05-25T12:42:14.605Z,20.71
2023-05-25T12:44:41.585Z,20.70
2023-05-25T12:47:08.949Z,20.71
2023-05-25T12:49:35.458Z,20.71
2023-05-25T12:52:01.764Z,20.70
2023-05-25T12:54:28.171Z,20.72
2023-05-25T12:56:54.793Z,20.73
2023-05-25T12:59:21.045Z,20.70
2023-05-25T13:01:47.499Z,20.70
2023-05-25T13:04:13.914Z,20.71
2023-05-25T13:06:40.310Z,20.70
2023-05-25T13:09:06.569Z,20.71
2023-05-25T13:11:32.855Z,20.72
2023-05-25T13:14:04.544Z,20.73
2023-05-25T13:16:32.353Z,20.74
2023-05-25T13:18:58.708Z,20.75
2023-05-25T13:21:25.027Z,20.75
2023-05-25T13:23:51.899Z,20.77
2023-05-25T13:26:18.154Z,20.76
2023-05-25T13:28:50.957Z,20.76
2023-05-25T13:31:17.310Z,20.76
2023-05-25T13:33:43.572Z,20.77
2023-05-25T13:36:09.829Z,20.78
2023-05-25T13:38:38.917Z,20.77
2023-05-25T13:41:09.853Z,20.76
2023-05-25T13:43:36.256Z,20.81
2023-05-25T13:46:08.749Z,20.79
2023-05-25T13:48:38.760Z,20.80
2023-05-25T13:51:05.247Z,20.82
2023-05-25T13:53:32.890Z,20.81
2023-05-25T13:55:59.178Z,20.81
2023-05-25T13:58:28.382Z,20.77
2023-05-25T14:00:54.856Z,20.75
2023-05-25T14:03:21.220Z,20.73
2023-05-25T14:05:50.355Z,20.77
2023-05-25T14:08:18.573Z,20.75
2023-05-25T14:10:44.962Z,20.76
2023-05-25T14:13:13.528Z,20.78
2023-05-25T14:15:42.140Z,20.77
2023-05-25T14:18:08.646Z,20.77
2023-05-25T14:20:39.158Z,20.78
2023-05-25T14:23:05.827Z,20.77
2023-05-25T14:25:33.569Z,20.77
2023-05-25T14:28:05.435Z,20.80
2023-05-25T14:30:32.345Z,20.81
2023-05-25T14:32:58.769Z,20.81
2023-05-25T14:35:27.122Z,20.80
2023-05-25T14:37:59.210Z,20.81
2023-05-25T14:40:25.518Z,20.82
2023-05-25T14:42:51.875Z,20.82
2023-05-25T14:45:18.133Z,20.84
2023-05-25T14:47:49.720Z,20.85
2023-05-25T14:50:17.269Z,20.84
2023-05-25T14:52:43.507Z,20.88
2023-05-25T14:55:09.819Z,20.88
2023-05-25T14:57:43.336Z,20.88
2023-05-25T15:00:11.367Z,20.91
2023-05-25T15:02:37.913Z,20.92
2023-05-25T15:05:04.322Z,20.93
2023-05-25T15:07:30.702Z,20.92
2023-05-25T15:10:03.553Z,20.93
2023-05-25T15:12:33.490Z,20.93
2023-05-25T15:14:59.897Z,20.93
2023-05-25T15:17:26.237Z,20.94
2023-05-25T15:19:52.682Z,20.92
2023-05-25T15:22:19.109Z,20.94
2023-05-25T15:24:45.688Z,20.92
2023-05-25T15:27:11.953Z,20.94
2023-05-25T15:29:45.776Z,20.94
2023-05-25T15:32:18.161Z,20.95
2023-05-25T15:34:45.208Z,20.96
2023-05-25T15:37:21.393Z,20.95
2023-05-25T15:39:47.651Z,20.95
2023-05-25T15:42:14.890Z,20.93
2023-05-25T15:44:41.201Z,20.93
2023-05-25T15:47:07.569Z,20.93
2023-05-25T15:49:33.862Z,20.93
2023-05-25T15:52:00.165Z,20.93
2023-05-25T15:54:33.810Z,20.94
2023-05-25T15:57:00.219Z,20.97
2023-05-25T15:59:27.180Z,20.97
2023-05-25T16:01:53.509Z,20.98
2023-05-25T16:04:25.793Z,20.98
2023-05-25T16:06:52.217Z,20.98
2023-05-25T16:09:18.881Z,20.97
2023-05-25T16:11:45.243Z,20.98
2023-05-25T16:14:11.705Z,20.97
2023-05-25T16:16:38.232Z,20.97
2023-05-25T16:19:04.583Z,20.97
2023-05-25T16:21:36.907Z,20.98
2023-05-25T16:24:03.347Z,20.99
2023-05-25T16:26:30.852Z,21.00
2023-05-25T16:29:01.010Z,20.99
2023-05-25T16:31:27.277Z,21.01
2023-05-25T16:33:53.598Z,21.01
2023-05-25T16:36:26.791Z,21.02
2023-05-25T16:38:53.187Z,21.02
2023-05-25T16:41:24.386Z,21.01
2023-05-25T16:43:53.070Z,21.02
2023-05-25T16:46:19.374Z,21.02
2023-05-25T16:48:45.621Z,21.02
2023-05-25T16:51:12.271Z,21.02
2023-05-25T16:53:38.543Z,21.02
2023-05-25T16:56:04.836Z,21.02
2023-05-25T16:58:31.096Z,21.03
2023-05-25T17:00:59.751Z,21.03
2023-05-25T17:03:27.719Z,21.05
2023-05-25T17:05:56.194Z,21.06
2023-05-25T17:08:25.596Z,21.06
2023-05-25T17:10:51.899Z,21.05
2023-05-25T17:13:18.155Z,21.06
2023-05-25T17:15:44.723Z,21.06
2023-05-25T17:18:11.663Z,21.07
2023-05-25T17:20:37.953Z,21.07
2023-05-25T17:23:07.521Z,21.07
2023-05-25T17:25:35.133Z,21.08
2023-05-25T17:28:05.431Z,21.09
2023-05-25T17:30:34.311Z,21.10
2023-05-25T17:33:05.999Z,21.10
2023-05-25T17:35:39.291Z,21.12
2023-05-25T17:38:07.493Z,21.11
2023-05-25T17:40:33.749Z,21.11
2023-05-25T17:43:00.164Z,21.13
2023-05-25T17:45:30.638Z,21.13
2023-05-25T17:47:57.000Z,21.13
2023-05-25T17:50:27.576Z,21.16
2023-05-25T17:52:53.821Z,21.14
2023-05-25T17:55:22.576Z,21.16
2023-05-25T17:57:50.092Z,21.17
2023-05-25T18:00:16.372Z,21.17
2023-05-25T18:02:46.865Z,21.18
2023-05-25T18:05:13.204Z,21.17
2023-05-25T18:07:39.507Z,21.17
2023-05-25T18:10:07.592Z,21.18
2023-05-25T18:12:33.860Z,21.19
2023-05-25T18:15:00.113Z,21.19
2023-05-25T18:17:26.903Z,21.19
2023-05-25T18:19:53.346Z,21.19
2023-05-25T18:22:23.105Z,21.20
2023-05-25T18:24:49.364Z,21.19
2023-05-25T18:27:19.294Z,21.20
2023-05-25T18:29:45.689Z,21.20
2023-05-25T18:32:11.933Z,21.22
2023-05-25T18:34:38.440Z,21.21
2023-05-25T18:37:09.248Z,21.21
2023-05-25T18:39:36.793Z,21.22
2023-05-25T18:42:05.452Z,21.19
2023-05-25T18:44:31.696Z,21.19
2023-05-25T18:46:59.530Z,21.20
2023-05-25T18:49:25.809Z,21.21
2023-05-25T18:51:54.076Z,21.21
2023-05-25T18:54:20.350Z,21.21
2023-05-25T18:56:47.302Z,21.21
2023-05-25T18:59:20.691Z,21.23
2023-05-25T19:01:53.698Z,21.22
2023-05-25T19:04:20.358Z,21.24
2023-05-25T19:06:52.187Z,21.23
2023-05-25T19:09:19.136Z,21.23
2023-05-25T19:11:45.390Z,21.23
2023-05-25T19:14:12.212Z,21.23
2023-05-25T19:16:42.452Z,21.25
2023-05-25T19:19:13.900Z,21.27
2023-05-25T19:21:50.198Z,21.24
2023-05-25T19:24:22.452Z,21.23
2023-05-25T19:26:52.986Z,21.25
2023-05-25T19:29:19.361Z,21.22
2023-05-25T19:31:45.687Z,21.23
2023-05-25T19:34:12.878Z,21.25
2023-05-25T19:36:40.450Z,21.23
2023-05-25T19:39:06.688Z,21.25
2023-05-25T19:41:36.647Z,21.24
2023-05-25T19:44:06.784Z,21.25
2023-05-25T19:46:33.276Z,21.25
2023-05-25T19:49:01.086Z,21.25
2023-05-25T19:51:28.768Z,21.25
2023-05-25T19:53:55.081Z,21.25
2023-05-25T19:56:24.192Z,21.25
2023-05-25T19:58:57.257Z,21.28
2023-05-25T20:01:23.529Z,21.27
2023-05-25T20:03:49.931Z,21.25
2023-05-25T20:06:16.267Z,21.26
2023-05-25T20:08:43.473Z,21.27
2023-05-25T20:11:11.356Z,21.26
2023-05-25T20:13:46.592Z,21.25
2023-05-25T20:16:13.019Z,21.25
2023-05-25T20:18:39.301Z,21.26
2023-05-25T20:21:10.557Z,21.28
2023-05-25T20:23:36.808Z,21.27
2023-05-25T20:26:03.341Z,21.27
2023-05-25T20:28:29.712Z,21.27
2023-05-25T20:31:01.798Z,21.29
2023-05-25T20:33:35.210Z,21.29
2023-05-25T20:36:01.463Z,21.28
2023-05-25T20:38:32.053Z,21.29
2023-05-25T20:41:01.547Z,21.28
2023-05-25T20:43:29.016Z,21.28
2023-05-25T20:45:55.384Z,21.28
2023-05-25T20:48:21.646Z,21.27
2023-05-25T20:50:50.559Z,21.27
2023-05-25T20:53:23.894Z,21.29
2023-05-25T20:55:50.138Z,21.29
2023-05-25T20:58:16.379Z,21.29
2023-05-25T21:00:42.699Z,21.30
2023-05-25T21:03:09.140Z,21.29
2023-05-25T21:05:35.488Z,21.30
2023-05-25T21:08:01.848Z,21.31
2023-05-25T21:10:28.113Z,21.30
2023-05-25T21:13:04.366Z,21.30
2023-05-25T21:15:30.602Z,21.30
2023-05-25T21:17:57.913Z,21.29
2023-05-25T21:20:29.451Z,21.32
2023-05-25T21:22:55.998Z,21.31
2023-05-25T21:25:22.427Z,21.30
2023-05-25T21:27:48.754Z,21.30
2023-05-25T21:30:15.824Z,21.30
2023-05-25T21:32:42.149Z,21.30
2023-05-25T21:35:08.449Z,21.30
2023-05-25T21:37:34.713Z,21.29
2023-05-25T21:40:00.989Z,21.28
2023-05-25T21:42:27.556Z,21.28
2023-05-25T21:44:56.289Z,21.28
2023-05-25T21:47:25.508Z,21.29
2023-05-25T21:49:52.038Z,21.28
2023-05-25T21:52:24.094Z,21.29
2023-05-25T21:54:56.978Z,21.28
2023-05-25T21:57:23.212Z,21.29
2023-05-25T21:59:51.451Z,21.29
2023-05-25T22:02:17.773Z,21.29
2023-05-25T22:04:44.075Z,21.29
2023-05-25T22:07:10.364Z,21.28
2023-05-25T22:09:36.624Z,21.29
2023-05-25T22:12:08.804Z,21.29
2023-05-25T22:14:43.154Z,21.28
2023-05-25T22:17:09.466Z,21.28
2023-05-25T22:19:35.749Z,21.28
2023-05-25T22:22:02.878Z,21.28
2023-05-25T22:24:31.222Z,21.27
2023-05-25T22:26:59.031Z,21.27
2023-05-25T22:29:27.858Z,21.26
2023-05-25T22:31:54.191Z,21.27
2023-05-25T22:34:20.510Z,21.27
2023-05-25T22:36:46.817Z,21.26
2023-05-25T22:39:16.668Z,21.25
2023-05-25T22:41:47.947Z,21.25
2023-05-25T22:44:14.643Z,21.25
2023-05-25T22:46:41.324Z,21.25
2023-05-25T22:49:09.659Z,21.24
2023-05-25T22:51:35.915Z,21.24
2023-05-25T22:54:02.415Z,21.25
2023-05-25T22:56:30.573Z,21.24
2023-05-25T22:59:00.216Z,21.23
2023-05-25T23:01:26.513Z,21.23
2023-05-25T23:03:52.997Z,21.23
2023-05-25T23:06:19.330Z,21.22
2023-05-25T23:08:50.259Z,21.21
2023-05-25T23:11:18.554Z,21.22
2023-05-25T23:13:44.877Z,21.21
2023-05-25T23:16:14.370Z,21.20
2023-05-25T23:18:42.854Z,21.21
2023-05-25T23:21:19.104Z,21.20
2023-05-25T23:23:55.343Z,21.19
2023-05-25T23:26:21.568Z,21.20
2023-05-25T23:28:50.253Z,21.20
2023-05-25T23:31:22.668Z,21.21
2023-05-25T23:33:49.251Z,21.21
2023-05-25T23:36:15.821Z,21.21
2023-05-25T23:38:42.218Z,21.20
2023-05-25T23:41:12.834Z,21.21
2023-05-25T23:43:39.534Z,21.21
2023-05-25T23:46:10.608Z,21.21
2023-05-25T23:48:37.349Z,21.21
2023-05-25T23:51:09.287Z,21.21
2023-05-25T23:53:35.590Z,21.21
2023-05-25T23:56:03.059Z,21.20
2023-05-25T23:58:34.880Z,21.20
